createdAt,value
2019-05-21T00:00:09.946Z,17.60
2019-05-21T00:02:38.740Z,17.60
2019-05-21T00:05:08.325Z,17.60
2019-05-21T00:07:37.063Z,17.70
2019-05-21T00:10:08.191Z,17.80
2019-05-21T00:12:36.964Z,17.70
2019-05-21T00:15:06.812Z,17.70
2019-05-21T00:17:35.545Z,17.70
2019-05-21T00:20:06.186Z,17.70
2019-05-21T00:22:35.231Z,17.70
2019-05-21T00:25:06.435Z,17.70
2019-05-21T00:27:35.235Z,17.70
2019-05-21T00:30:40.396Z,17.80
2019-05-21T00:33:45.437Z,17.80
2019-05-21T00:36:52.181Z,17.80
2019-05-21T00:39:57.651Z,17.80
2019-05-21T00:42:31.966Z,17.80
2019-05-21T00:45:00.789Z,17.80
2019-05-21T00:47:29.704Z,17.80
2019-05-21T00:49:58.526Z,17.70
2019-05-21T00:52:27.373Z,17.80
2019-05-21T00:54:56.595Z,17.70
2019-05-21T00:57:25.352Z,17.80
2019-05-21T00:59:54.095Z,17.80
2019-05-21T01:02:22.816Z,17.80
2019-05-21T01:05:00.327Z,17.70
2019-05-21T01:07:22.137Z,17.80
2019-05-21T01:09:51.154Z,17.80
2019-05-21T01:12:19.877Z,17.80
2019-05-21T01:14:48.720Z,17.80
2019-05-21T01:17:17.453Z,17.80
2019-05-21T01:19:46.177Z,17.70
2019-05-21T01:22:14.896Z,17.70
2019-05-21T01:24:43.749Z,17.70
2019-05-21T01:27:12.450Z,17.70
2019-05-21T01:29:41.302Z,17.80
2019-05-21T01:32:10.154Z,17.70
2019-05-21T01:34:38.997Z,17.70
2019-05-21T01:37:07.802Z,17.80
2019-05-21T01:39:36.521Z,17.80
2019-05-21T01:42:05.234Z,17.90
2019-05-21T01:44:34.058Z,17.80
2019-05-21T01:47:02.775Z,17.80
2019-05-21T01:49:31.636Z,17.70
2019-05-21T01:52:00.334Z,17.80
2019-05-21T01:54:29.049Z,17.70
2019-05-21T01:56:57.959Z,17.70
2019-05-21T01:59:26.683Z,17.70
2019-05-21T02:01:55.432Z,17.60
2019-05-21T02:04:24.159Z,17.50
2019-05-21T02:06:52.997Z,17.50
2019-05-21T02:09:21.773Z,17.50
2019-05-21T02:11:50.653Z,17.40
2019-05-21T02:14:19.403Z,17.40
2019-05-21T02:16:48.212Z,17.40
2019-05-21T02:19:16.936Z,17.40
2019-05-21T02:21:45.814Z,17.20
2019-05-21T02:24:14.568Z,17.30
2019-05-21T02:26:43.460Z,17.20
2019-05-21T02:29:12.337Z,17.20
2019-05-21T02:31:41.184Z,17.10
2019-05-21T02:34:09.974Z,17.00
2019-05-21T02:36:38.681Z,17.00
2019-05-21T02:39:08.121Z,16.90
2019-05-21T02:41:36.881Z,16.90
2019-05-21T02:44:05.628Z,16.80
2019-05-21T02:46:34.376Z,16.80
2019-05-21T02:49:03.213Z,16.70
2019-05-21T02:51:31.957Z,16.60
2019-05-21T02:54:00.730Z,16.60
2019-05-21T02:56:29.674Z,16.60
2019-05-21T02:58:58.427Z,16.70
2019-05-21T03:01:28.916Z,16.80
2019-05-21T03:03:57.613Z,16.90
2019-05-21T03:06:26.340Z,16.90
2019-05-21T03:08:55.110Z,17.00
2019-05-21T03:11:23.914Z,17.10
2019-05-21T03:13:52.978Z,17.10
2019-05-21T03:16:21.695Z,17.20
2019-05-21T03:18:50.478Z,17.30
2019-05-21T03:21:19.193Z,17.40
2019-05-21T03:23:48.187Z,17.40
2019-05-21T03:26:16.905Z,17.40
2019-05-21T03:28:45.882Z,17.50
2019-05-21T03:31:14.613Z,17.50
2019-05-21T03:33:43.467Z,17.60
2019-05-21T03:36:12.182Z,17.70
2019-05-21T03:38:41.119Z,17.80
2019-05-21T03:41:09.839Z,17.70
2019-05-21T03:43:38.699Z,17.80
2019-05-21T03:46:07.448Z,17.90
2019-05-21T03:48:36.875Z,17.80
2019-05-21T03:51:05.577Z,17.90
2019-05-21T03:53:35.797Z,17.90
2019-05-21T03:56:04.638Z,17.90
2019-05-21T03:58:33.467Z,18.00
2019-05-21T04:01:02.220Z,18.20
2019-05-21T04:03:30.942Z,18.30
2019-05-21T04:05:59.870Z,18.30
2019-05-21T04:08:28.653Z,18.40
2019-05-21T04:10:57.405Z,18.40
2019-05-21T04:13:26.287Z,18.50
2019-05-21T04:15:59.456Z,18.50
2019-05-21T04:18:29.812Z,18.70
2019-05-21T04:20:58.624Z,18.80
2019-05-21T04:23:27.283Z,18.80
2019-05-21T04:25:57.849Z,18.90
2019-05-21T04:28:26.580Z,19.00
2019-05-21T04:30:55.545Z,19.00
2019-05-21T04:33:26.390Z,19.10
2019-05-21T04:35:55.297Z,19.20
2019-05-21T04:38:23.978Z,19.30
2019-05-21T04:40:52.842Z,19.30
2019-05-21T04:43:21.641Z,19.50
2019-05-21T04:45:50.345Z,19.60
2019-05-21T04:48:19.085Z,19.60
2019-05-21T04:50:47.977Z,19.60
2019-05-21T04:53:16.721Z,19.70
2019-05-21T04:55:47.270Z,19.70
2019-05-21T04:58:15.977Z,19.80
2019-05-21T05:00:44.841Z,19.90
2019-05-21T05:03:14.846Z,20.00
2019-05-21T05:05:43.542Z,20.20
2019-05-21T05:08:12.270Z,20.30
2019-05-21T05:10:40.981Z,20.20
2019-05-21T05:13:09.880Z,20.10
2019-05-21T05:15:40.732Z,20.30
2019-05-21T05:18:09.163Z,20.20
2019-05-21T05:20:38.986Z,20.20
2019-05-21T05:23:07.816Z,20.40
2019-05-21T05:25:36.549Z,20.50
2019-05-21T05:28:05.395Z,20.60
2019-05-21T05:30:34.062Z,20.60
2019-05-21T05:33:02.853Z,20.70
2019-05-21T05:35:31.566Z,20.80
2019-05-21T05:38:00.372Z,20.90
2019-05-21T05:40:29.201Z,21.00
2019-05-21T05:42:57.972Z,21.10
2019-05-21T05:45:28.548Z,21.30
2019-05-21T05:47:57.362Z,21.30
2019-05-21T05:50:36.843Z,21.30
2019-05-21T05:53:05.691Z,21.40
2019-05-21T05:55:34.389Z,21.50
2019-05-21T05:58:03.204Z,21.50
2019-05-21T06:00:31.921Z,21.70
2019-05-21T06:03:00.647Z,21.70
2019-05-21T06:05:29.449Z,21.70
2019-05-21T06:08:00.232Z,21.90
2019-05-21T06:10:28.651Z,21.80
2019-05-21T06:12:57.461Z,21.80
2019-05-21T06:15:26.204Z,21.70
2019-05-21T06:17:55.086Z,21.70
2019-05-21T06:20:24.306Z,21.70
2019-05-21T06:22:53.155Z,21.70
2019-05-21T06:25:23.797Z,21.70
2019-05-21T06:27:52.466Z,21.80
2019-05-21T06:30:21.297Z,22.00
2019-05-21T06:32:50.099Z,22.00
2019-05-21T06:35:18.989Z,21.80
2019-05-21T06:37:47.714Z,22.00
2019-05-21T06:40:16.762Z,22.30
2019-05-21T06:42:45.508Z,22.40
2019-05-21T06:45:15.035Z,22.40
2019-05-21T06:47:43.834Z,22.60
2019-05-21T06:50:12.801Z,22.60
2019-05-21T06:52:41.556Z,22.70
2019-05-21T06:55:11.023Z,22.90
2019-05-21T06:57:39.870Z,22.90
2019-05-21T07:00:09.341Z,23.00
2019-05-21T07:02:38.141Z,23.30
2019-05-21T07:05:06.875Z,23.30
2019-05-21T07:07:35.737Z,23.50
2019-05-21T07:10:07.822Z,23.70
2019-05-21T07:12:36.584Z,23.80
2019-05-21T07:15:08.287Z,23.70
2019-05-21T07:17:37.491Z,23.70
2019-05-21T07:20:07.501Z,23.80
2019-05-21T07:22:36.300Z,23.80
2019-05-21T07:25:06.373Z,23.70
2019-05-21T07:27:35.089Z,23.70
2019-05-21T07:30:05.219Z,23.80
2019-05-21T07:32:34.021Z,23.80
2019-05-21T07:35:02.726Z,23.90
2019-05-21T07:37:31.465Z,24.20
2019-05-21T07:40:00.241Z,24.10
2019-05-21T07:42:28.953Z,24.10
2019-05-21T07:44:59.316Z,24.00
2019-05-21T07:47:28.041Z,23.90
2019-05-21T07:49:56.767Z,24.10
2019-05-21T07:52:25.502Z,24.30
2019-05-21T07:54:54.306Z,24.30
2019-05-21T07:57:23.060Z,24.50
2019-05-21T07:59:51.799Z,24.60
2019-05-21T08:02:20.524Z,24.80
2019-05-21T08:04:49.261Z,24.80
2019-05-21T08:07:18.065Z,25.00
2019-05-21T08:09:46.799Z,25.10
2019-05-21T08:12:35.470Z,25.50
2019-05-21T08:14:45.911Z,25.00
2019-05-21T08:17:14.673Z,25.20
2019-05-21T08:19:43.405Z,25.40
2019-05-21T08:22:12.250Z,25.20
2019-05-21T08:24:40.980Z,25.40
2019-05-21T08:27:09.664Z,25.60
2019-05-21T08:29:38.393Z,25.50
2019-05-21T08:32:07.183Z,25.10
2019-05-21T08:34:35.905Z,25.20
2019-05-21T08:37:04.710Z,25.10
2019-05-21T08:39:34.101Z,25.00
2019-05-21T08:42:02.935Z,25.10
2019-05-21T08:44:31.686Z,25.00
2019-05-21T08:47:00.472Z,25.00
2019-05-21T08:49:29.371Z,24.90
2019-05-21T08:51:58.361Z,25.20
2019-05-21T08:54:45.299Z,25.40
2019-05-21T08:57:14.051Z,25.60
2019-05-21T08:59:42.718Z,25.50
2019-05-21T09:02:11.529Z,25.20
2019-05-21T09:04:46.188Z,25.10
2019-05-21T09:07:11.011Z,25.20
2019-05-21T09:09:50.270Z,25.40
2019-05-21T09:12:10.178Z,25.40
2019-05-21T09:14:38.949Z,25.40
2019-05-21T09:17:07.812Z,25.40
2019-05-21T09:19:36.896Z,25.40
2019-05-21T09:22:12.506Z,25.60
2019-05-21T09:24:41.243Z,25.70
2019-05-21T09:27:10.024Z,25.90
2019-05-21T09:29:38.761Z,26.10
2019-05-21T09:32:07.607Z,26.00
2019-05-21T09:34:48.017Z,26.30
2019-05-21T09:37:19.311Z,26.30
2019-05-21T09:39:37.165Z,26.40
2019-05-21T09:42:06.037Z,26.20
2019-05-21T09:44:34.766Z,26.20
2019-05-21T09:47:03.483Z,25.90
2019-05-21T09:49:32.224Z,26.10
2019-05-21T09:52:00.971Z,26.00
2019-05-21T09:54:29.784Z,26.20
2019-05-21T09:57:00.360Z,26.30
2019-05-21T09:59:34.599Z,26.30
2019-05-21T10:02:05.026Z,26.20
2019-05-21T10:04:34.179Z,26.10
2019-05-21T10:07:02.902Z,26.10
2019-05-21T10:09:31.698Z,26.20
2019-05-21T10:12:00.556Z,26.40
2019-05-21T10:14:29.293Z,26.60
2019-05-21T10:16:58.043Z,26.80
2019-05-21T10:19:26.766Z,26.70
2019-05-21T10:21:57.101Z,26.60
2019-05-21T10:24:26.015Z,26.60
2019-05-21T10:26:54.873Z,26.90
2019-05-21T10:29:23.925Z,27.00
2019-05-21T10:31:52.691Z,27.40
2019-05-21T10:34:21.538Z,27.50
2019-05-21T10:36:50.284Z,27.30
2019-05-21T10:39:19.040Z,27.10
2019-05-21T10:41:47.745Z,27.20
2019-05-21T10:44:16.572Z,27.50
2019-05-21T10:46:45.365Z,27.50
2019-05-21T10:49:14.317Z,27.50
2019-05-21T10:51:43.063Z,27.50
2019-05-21T10:54:11.890Z,27.50
2019-05-21T10:56:47.991Z,27.70
2019-05-21T10:59:11.020Z,27.80
2019-05-21T11:01:47.442Z,27.90
2019-05-21T11:04:17.796Z,27.60
2019-05-21T11:06:48.004Z,27.40
2019-05-21T11:09:23.179Z,27.10
2019-05-21T11:11:52.048Z,27.10
2019-05-21T11:14:20.852Z,27.20
2019-05-21T11:16:49.665Z,27.20
2019-05-21T11:19:18.436Z,27.10
2019-05-21T11:21:47.147Z,27.30
2019-05-21T11:24:16.017Z,27.50
2019-05-21T11:26:44.920Z,27.50
2019-05-21T11:29:13.745Z,27.60
2019-05-21T11:31:55.836Z,27.80
2019-05-21T11:34:12.846Z,27.90
2019-05-21T11:36:41.572Z,27.80
2019-05-21T11:39:10.302Z,27.70
2019-05-21T11:41:39.086Z,27.80
2019-05-21T11:44:07.919Z,28.10
2019-05-21T11:46:37.607Z,28.10
2019-05-21T11:49:06.336Z,28.00
2019-05-21T11:51:35.173Z,28.00
2019-05-21T11:54:04.009Z,28.30
2019-05-21T11:56:36.078Z,28.30
2019-05-21T11:59:03.128Z,28.10
2019-05-21T12:01:31.906Z,28.00
2019-05-21T12:04:00.701Z,28.00
2019-05-21T12:06:29.428Z,27.90
2019-05-21T12:08:58.149Z,27.90
2019-05-21T12:11:26.888Z,27.90
2019-05-21T12:13:55.679Z,27.80
2019-05-21T12:16:24.468Z,28.00
2019-05-21T12:18:53.334Z,28.20
2019-05-21T12:21:22.177Z,28.30
2019-05-21T12:23:50.914Z,28.30
2019-05-21T12:26:19.632Z,28.40
2019-05-21T12:28:48.435Z,28.50
2019-05-21T12:31:20.192Z,28.30
2019-05-21T12:33:48.964Z,28.40
2019-05-21T12:36:17.874Z,28.40
2019-05-21T12:38:46.593Z,28.20
2019-05-21T12:41:15.401Z,28.20
2019-05-21T12:43:44.130Z,28.50
2019-05-21T12:46:12.859Z,28.70
2019-05-21T12:48:41.593Z,28.60
2019-05-21T12:51:10.329Z,28.60
2019-05-21T12:53:39.056Z,28.50
2019-05-21T12:56:07.835Z,28.80
2019-05-21T12:58:36.545Z,28.90
2019-05-21T13:01:05.865Z,29.10
2019-05-21T13:03:34.587Z,29.30
2019-05-21T13:06:03.388Z,29.30
2019-05-21T13:08:32.089Z,29.60
2019-05-21T13:11:00.814Z,29.60
2019-05-21T13:13:29.600Z,29.30
2019-05-21T13:15:58.390Z,29.00
2019-05-21T13:18:27.122Z,28.90
2019-05-21T13:20:55.848Z,28.70
2019-05-21T13:23:24.588Z,28.70
2019-05-21T13:25:53.625Z,28.60
2019-05-21T13:28:22.398Z,28.70
2019-05-21T13:30:51.140Z,28.90
2019-05-21T13:33:19.868Z,29.30
2019-05-21T13:35:48.594Z,29.40
2019-05-21T13:38:17.330Z,29.50
2019-05-21T13:40:46.512Z,29.60
2019-05-21T13:43:15.326Z,29.20
2019-05-21T13:45:44.080Z,29.30
2019-05-21T13:48:14.356Z,29.20
2019-05-21T13:50:45.269Z,29.10
2019-05-21T13:53:14.738Z,28.70
2019-05-21T13:55:43.857Z,28.70
2019-05-21T13:58:12.805Z,28.60
2019-05-21T14:00:43.190Z,28.40
2019-05-21T14:03:12.821Z,28.40
2019-05-21T14:05:41.700Z,28.30
2019-05-21T14:08:10.434Z,28.40
2019-05-21T14:10:39.465Z,28.60
2019-05-21T14:13:08.340Z,29.10
2019-05-21T14:15:37.039Z,29.20
2019-05-21T14:18:05.740Z,29.40
2019-05-21T14:20:34.533Z,29.70
2019-05-21T14:23:03.331Z,29.90
2019-05-21T14:25:32.053Z,30.00
2019-05-21T14:28:00.909Z,30.10
2019-05-21T14:30:29.707Z,30.20
2019-05-21T14:32:58.543Z,29.80
2019-05-21T14:35:27.325Z,30.00
2019-05-21T14:37:56.110Z,30.30
2019-05-21T14:40:31.680Z,30.30
2019-05-21T14:43:00.428Z,30.20
2019-05-21T14:45:29.906Z,30.00
2019-05-21T14:47:57.815Z,29.90
2019-05-21T14:50:26.516Z,30.10
2019-05-21T14:52:55.337Z,30.10
2019-05-21T14:55:24.060Z,30.40
2019-05-21T14:57:52.786Z,30.60
2019-05-21T15:00:43.821Z,31.10
2019-05-21T15:03:23.881Z,31.00
2019-05-21T15:05:38.888Z,31.30
2019-05-21T15:08:07.767Z,31.00
2019-05-21T15:10:47.831Z,31.00
2019-05-21T15:13:06.779Z,30.60
2019-05-21T15:15:36.214Z,30.00
2019-05-21T15:18:05.522Z,29.90
2019-05-21T15:20:51.037Z,29.50
2019-05-21T15:23:19.753Z,29.50
2019-05-21T15:25:48.477Z,29.70
2019-05-21T15:28:17.288Z,29.80
2019-05-21T15:30:46.007Z,29.80
2019-05-21T15:33:14.943Z,29.60
2019-05-21T15:35:43.650Z,29.40
2019-05-21T15:38:14.305Z,29.40
2019-05-21T15:40:42.984Z,29.40
2019-05-21T15:43:11.692Z,29.70
2019-05-21T15:45:40.521Z,30.10
2019-05-21T15:48:09.346Z,30.10
2019-05-21T15:50:38.184Z,29.90
2019-05-21T15:53:06.914Z,29.50
2019-05-21T15:55:35.633Z,29.30
2019-05-21T15:58:04.679Z,28.60
2019-05-21T16:00:34.133Z,28.30
2019-05-21T16:03:04.708Z,28.10
2019-05-21T16:05:33.951Z,27.80
2019-05-21T16:08:02.685Z,27.70
2019-05-21T16:10:31.557Z,27.50
2019-05-21T16:13:00.534Z,27.40
2019-05-21T16:15:29.372Z,27.50
2019-05-21T16:17:58.116Z,27.30
2019-05-21T16:20:26.946Z,27.40
2019-05-21T16:22:55.881Z,27.40
2019-05-21T16:25:24.772Z,27.20
2019-05-21T16:27:53.605Z,27.20
2019-05-21T16:30:22.906Z,27.10
2019-05-21T16:32:51.824Z,26.90
2019-05-21T16:35:20.569Z,26.80
2019-05-21T16:37:49.369Z,26.80
2019-05-21T16:40:19.857Z,26.60
2019-05-21T16:42:48.590Z,26.40
2019-05-21T16:45:18.584Z,26.30
2019-05-21T16:47:47.238Z,26.20
2019-05-21T16:50:17.056Z,26.20
2019-05-21T16:52:45.988Z,26.10
2019-05-21T16:55:15.280Z,26.00
2019-05-21T16:57:44.104Z,26.00
2019-05-21T17:00:15.071Z,26.10
2019-05-21T17:02:44.076Z,26.20
2019-05-21T17:05:12.765Z,26.30
2019-05-21T17:07:41.540Z,26.40
2019-05-21T17:10:11.713Z,26.30
2019-05-21T17:12:40.453Z,26.30
2019-05-21T17:15:09.883Z,26.30
2019-05-21T17:17:38.765Z,26.20
2019-05-21T17:20:09.314Z,26.20
2019-05-21T17:22:38.162Z,26.20
2019-05-21T17:25:10.261Z,26.20
2019-05-21T17:27:39.165Z,26.20
2019-05-21T17:30:11.323Z,26.20
2019-05-21T17:32:42.352Z,26.20
2019-05-21T17:35:10.407Z,26.20
2019-05-21T17:37:39.220Z,26.40
2019-05-21T17:40:09.053Z,26.40
2019-05-21T17:42:38.000Z,26.30
2019-05-21T17:45:08.239Z,26.30
2019-05-21T17:47:36.966Z,26.20
2019-05-21T17:50:06.985Z,26.10
2019-05-21T17:52:39.214Z,26.10
2019-05-21T17:55:08.247Z,25.90
2019-05-21T17:57:38.335Z,25.80
2019-05-21T18:00:09.461Z,25.80
2019-05-21T18:02:37.330Z,25.80
2019-05-21T18:05:08.393Z,25.70
2019-05-21T18:07:37.049Z,25.60
2019-05-21T18:10:07.853Z,25.40
2019-05-21T18:12:37.146Z,25.20
2019-05-21T18:15:08.926Z,25.10
2019-05-21T18:17:38.481Z,25.00
2019-05-21T18:20:10.563Z,24.70
2019-05-21T18:22:40.322Z,24.60
2019-05-21T18:25:11.651Z,24.50
2019-05-21T18:27:41.041Z,24.50
2019-05-21T18:30:10.435Z,24.50
2019-05-21T18:32:39.276Z,24.50
2019-05-21T18:35:09.111Z,24.40
2019-05-21T18:37:39.204Z,24.40
2019-05-21T18:40:09.032Z,24.30
2019-05-21T18:42:37.765Z,24.30
2019-05-21T18:45:06.976Z,24.20
2019-05-21T18:47:35.707Z,24.10
2019-05-21T18:50:11.289Z,24.00
2019-05-21T18:52:40.037Z,23.90
2019-05-21T18:55:09.255Z,23.70
2019-05-21T18:57:38.001Z,23.50
2019-05-21T19:00:08.302Z,23.30
2019-05-21T19:02:37.080Z,23.20
2019-05-21T19:05:06.900Z,23.10
2019-05-21T19:07:36.477Z,23.00
2019-05-21T19:10:08.297Z,22.90
2019-05-21T19:12:38.662Z,23.00
2019-05-21T19:15:08.225Z,22.80
2019-05-21T19:17:36.947Z,22.90
2019-05-21T19:20:08.597Z,22.90
2019-05-21T19:22:37.336Z,22.80
2019-05-21T19:25:09.724Z,22.70
2019-05-21T19:27:38.449Z,22.60
2019-05-21T19:30:08.560Z,22.50
2019-05-21T19:32:37.292Z,22.30
2019-05-21T19:35:07.033Z,22.10
2019-05-21T19:37:35.756Z,22.00
2019-05-21T19:40:06.188Z,21.80
2019-05-21T19:42:34.919Z,21.70
2019-05-21T19:45:05.932Z,21.60
2019-05-21T19:47:34.790Z,21.50
2019-05-21T19:50:04.992Z,21.50
2019-05-21T19:52:33.804Z,21.40
2019-05-21T19:55:02.657Z,21.40
2019-05-21T19:57:33.029Z,21.40
2019-05-21T20:00:01.757Z,21.40
2019-05-21T20:02:30.558Z,21.30
2019-05-21T20:05:00.191Z,21.30
2019-05-21T20:07:31.257Z,21.40
2019-05-21T20:10:02.665Z,21.40
2019-05-21T20:12:31.841Z,21.50
2019-05-21T20:15:01.288Z,21.50
2019-05-21T20:17:31.275Z,21.50
2019-05-21T20:20:00.307Z,21.60
2019-05-21T20:22:31.861Z,21.40
2019-05-21T20:25:00.566Z,21.30
2019-05-21T20:27:30.451Z,21.30
2019-05-21T20:30:11.642Z,21.30
2019-05-21T20:32:31.512Z,21.30
2019-05-21T20:35:00.290Z,21.30
2019-05-21T20:37:29.700Z,21.20
2019-05-21T20:39:58.492Z,21.10
2019-05-21T20:42:29.201Z,21.00
2019-05-21T20:44:58.091Z,20.90
2019-05-21T20:47:26.955Z,20.90
2019-05-21T20:49:56.122Z,20.90
2019-05-21T20:52:25.859Z,20.80
2019-05-21T20:54:58.018Z,20.80
2019-05-21T20:57:29.229Z,20.70
2019-05-21T20:59:59.317Z,20.70
2019-05-21T21:02:30.087Z,20.60
2019-05-21T21:05:00.228Z,20.50
2019-05-21T21:07:32.648Z,20.50
2019-05-21T21:10:01.638Z,20.40
2019-05-21T21:12:31.838Z,20.30
2019-05-21T21:15:00.603Z,20.20
2019-05-21T21:17:29.463Z,20.20
2019-05-21T21:19:58.210Z,20.20
2019-05-21T21:22:27.022Z,20.10
2019-05-21T21:24:57.230Z,20.00
2019-05-21T21:27:27.040Z,20.00
2019-05-21T21:29:55.805Z,19.90
2019-05-21T21:32:24.555Z,19.80
2019-05-21T21:34:53.294Z,19.70
2019-05-21T21:37:22.093Z,19.70
2019-05-21T21:39:51.396Z,19.60
2019-05-21T21:42:20.515Z,19.60
2019-05-21T21:44:49.421Z,19.60
2019-05-21T21:47:18.189Z,19.50
2019-05-21T21:49:47.159Z,19.60
2019-05-21T21:52:16.602Z,19.60
2019-05-21T21:54:45.497Z,19.60
2019-05-21T21:57:14.377Z,19.60
2019-05-21T21:59:43.195Z,19.70
2019-05-21T22:02:31.178Z,19.60
2019-05-21T22:05:01.133Z,19.70
2019-05-21T22:07:30.958Z,19.60
2019-05-21T22:10:00.042Z,19.50
2019-05-21T22:12:28.782Z,19.50
2019-05-21T22:15:00.167Z,19.40
2019-05-21T22:17:29.176Z,19.40
2019-05-21T22:19:58.670Z,19.30
2019-05-21T22:22:30.057Z,19.20
2019-05-21T22:24:58.697Z,19.20
2019-05-21T22:27:27.436Z,19.10
2019-05-21T22:29:56.160Z,19.10
2019-05-21T22:32:25.459Z,19.10
2019-05-21T22:34:54.255Z,19.10
2019-05-21T22:37:23.652Z,19.10
2019-05-21T22:39:52.554Z,19.00
2019-05-21T22:42:22.924Z,19.10
2019-05-21T22:45:06.818Z,19.10
2019-05-21T22:47:23.090Z,19.00
2019-05-21T22:49:51.810Z,19.00
2019-05-21T22:52:20.534Z,19.00
2019-05-21T22:54:49.439Z,19.00
2019-05-21T22:57:18.150Z,19.00
2019-05-21T22:59:46.877Z,19.00
2019-05-21T23:02:17.449Z,18.90
2019-05-21T23:04:46.178Z,18.90
2019-05-21T23:07:15.089Z,18.90
2019-05-21T23:09:43.901Z,18.80
2019-05-21T23:12:12.807Z,18.70
2019-05-21T23:14:41.526Z,18.60
2019-05-21T23:17:11.124Z,18.50
2019-05-21T23:19:40.321Z,18.50
2019-05-21T23:22:11.987Z,18.40
2019-05-21T23:24:41.123Z,18.30
2019-05-21T23:27:11.995Z,18.30
2019-05-21T23:29:40.731Z,18.30
2019-05-21T23:32:10.233Z,18.30
2019-05-21T23:34:39.732Z,18.30
2019-05-21T23:37:10.102Z,18.30
2019-05-21T23:39:40.492Z,18.30
2019-05-21T23:42:10.509Z,18.30
2019-05-21T23:44:39.640Z,18.30
2019-05-21T23:47:10.409Z,18.20
2019-05-21T23:49:39.243Z,18.20
2019-05-21T23:52:07.964Z,18.10
2019-05-21T23:54:36.693Z,18.10
2019-05-21T23:57:05.481Z,18.00
2019-05-21T23:59:34.437Z,17.90
